createdAt,value
2019-06-27T00:00:43.312Z,8.10
2019-06-27T00:03:13.754Z,7.90
2019-06-27T00:05:44.681Z,8.10
2019-06-27T00:08:15.215Z,7.90
2019-06-27T00:10:45.908Z,8.10
2019-06-27T00:13:16.369Z,8.07
2019-06-27T00:15:46.883Z,8.27
2019-06-27T00:18:17.382Z,8.80
2019-06-27T00:20:47.941Z,8.53
2019-06-27T00:23:18.492Z,8.33
2019-06-27T00:25:49.110Z,8.23
2019-06-27T00:28:20.655Z,8.57
2019-06-27T00:30:51.299Z,8.43
2019-06-27T00:33:22.025Z,8.10
2019-06-27T00:35:53.604Z,8.20
2019-06-27T00:38:24.166Z,8.33
2019-06-27T00:40:54.842Z,8.50
2019-06-27T00:43:25.341Z,8.67
2019-06-27T00:45:56.906Z,8.40
2019-06-27T00:48:27.790Z,8.60
2019-06-27T00:50:58.144Z,8.87
2019-06-27T00:53:28.921Z,8.40
2019-06-27T00:55:59.345Z,8.27
2019-06-27T00:58:30.064Z,7.67
2019-06-27T01:01:00.501Z,8.20
2019-06-27T01:03:30.927Z,8.30
2019-06-27T01:06:01.321Z,8.03
2019-06-27T01:08:32.098Z,7.90
2019-06-27T01:11:02.704Z,8.33
2019-06-27T01:13:33.270Z,8.30
2019-06-27T01:16:03.883Z,8.87
2019-06-27T01:18:34.547Z,8.10
2019-06-27T01:21:05.099Z,8.87
2019-06-27T01:23:35.578Z,8.70
2019-06-27T01:26:06.247Z,8.70
2019-06-27T01:28:36.816Z,8.63
2019-06-27T01:31:07.255Z,8.93
2019-06-27T01:33:37.949Z,8.93
2019-06-27T01:36:08.408Z,9.47
2019-06-27T01:38:38.986Z,8.87
2019-06-27T01:41:09.502Z,9.53
2019-06-27T01:43:40.005Z,9.47
2019-06-27T01:46:10.456Z,9.73
2019-06-27T01:48:41.063Z,9.67
2019-06-27T01:51:11.471Z,10.00
2019-06-27T01:53:42.381Z,9.77
2019-06-27T01:56:12.773Z,9.40
2019-06-27T01:58:43.603Z,9.60
2019-06-27T02:01:14.208Z,9.70
2019-06-27T02:03:44.954Z,9.53
2019-06-27T02:06:15.354Z,9.70
2019-06-27T02:08:45.867Z,10.17
2019-06-27T02:11:16.517Z,9.60
2019-06-27T02:13:46.893Z,10.20
2019-06-27T02:16:17.484Z,9.97
2019-06-27T02:18:48.335Z,10.80
2019-06-27T02:21:18.826Z,9.83
2019-06-27T02:23:50.042Z,9.67
2019-06-27T02:26:20.695Z,10.00
2019-06-27T02:28:51.175Z,10.00
2019-06-27T02:31:21.603Z,9.90
2019-06-27T02:33:52.421Z,9.63
2019-06-27T02:36:22.892Z,9.67
2019-06-27T02:38:53.513Z,9.50
2019-06-27T02:41:24.513Z,9.57
2019-06-27T02:43:55.216Z,9.70
2019-06-27T02:46:25.817Z,10.20
2019-06-27T02:48:56.727Z,9.50
2019-06-27T02:51:27.392Z,9.30
2019-06-27T02:53:57.848Z,9.87
2019-06-27T02:56:28.558Z,9.73
2019-06-27T02:58:59.229Z,10.83
2019-06-27T03:01:29.642Z,10.97
2019-06-27T03:04:00.286Z,10.97
2019-06-27T03:06:30.846Z,10.30
2019-06-27T03:09:01.238Z,10.03
2019-06-27T03:11:33.014Z,11.03
2019-06-27T03:14:03.407Z,11.40
2019-06-27T03:16:33.881Z,11.40
2019-06-27T03:19:04.589Z,11.83
2019-06-27T03:21:35.003Z,11.70
2019-06-27T03:24:05.458Z,11.50
2019-06-27T03:26:36.203Z,12.20
2019-06-27T03:29:06.713Z,12.17
2019-06-27T03:31:37.130Z,12.60
2019-06-27T03:34:07.755Z,12.77
2019-06-27T03:36:38.163Z,11.20
2019-06-27T03:39:08.742Z,10.80
2019-06-27T03:41:39.281Z,11.03
2019-06-27T03:44:09.788Z,10.40
2019-06-27T03:46:40.645Z,10.53
2019-06-27T03:49:11.099Z,9.77
2019-06-27T03:51:41.617Z,9.83
2019-06-27T03:54:12.363Z,9.40
2019-06-27T03:56:43.510Z,9.13
2019-06-27T03:59:14.169Z,9.27
2019-06-27T04:01:45.015Z,9.60
2019-06-27T04:04:15.692Z,10.17
2019-06-27T04:06:46.317Z,9.20
2019-06-27T04:09:16.873Z,8.67
2019-06-27T04:11:47.492Z,7.77
2019-06-27T04:14:18.239Z,8.00
2019-06-27T04:16:49.695Z,7.70
2019-06-27T04:19:21.427Z,6.97
2019-06-27T04:21:51.879Z,6.90
2019-06-27T04:24:22.519Z,7.00
2019-06-27T04:26:53.191Z,6.73
2019-06-27T04:29:33.523Z,7.37
2019-06-27T04:31:56.130Z,6.20
2019-06-27T04:34:26.520Z,6.87
2019-06-27T04:36:57.268Z,6.40
2019-06-27T04:39:27.813Z,6.40
2019-06-27T04:41:58.275Z,6.43
2019-06-27T04:44:28.980Z,5.63
2019-06-27T04:46:59.503Z,6.77
2019-06-27T04:49:30.263Z,6.87
2019-06-27T04:52:00.693Z,5.70
2019-06-27T04:54:31.492Z,6.20
2019-06-27T04:57:01.913Z,5.13
2019-06-27T04:59:48.137Z,5.80
2019-06-27T05:02:04.620Z,5.60
2019-06-27T05:04:35.320Z,5.07
2019-06-27T05:07:06.541Z,5.70
2019-06-27T05:09:37.377Z,6.07
2019-06-27T05:12:08.191Z,6.10
2019-06-27T05:14:39.162Z,6.37
2019-06-27T05:17:09.758Z,5.07
2019-06-27T05:19:40.285Z,6.50
2019-06-27T05:22:10.793Z,9.17
2019-06-27T05:24:41.721Z,6.27
2019-06-27T05:27:12.407Z,5.30
2019-06-27T05:29:43.115Z,5.10
2019-06-27T05:32:13.536Z,6.37
2019-06-27T05:34:44.129Z,5.70
2019-06-27T05:37:14.643Z,6.17
2019-06-27T05:39:45.150Z,4.80
2019-06-27T05:42:15.575Z,5.00
2019-06-27T05:44:46.153Z,5.77
2019-06-27T05:47:16.628Z,6.00
2019-06-27T05:49:47.100Z,6.13
2019-06-27T05:52:17.884Z,4.83
2019-06-27T05:54:48.339Z,4.53
2019-06-27T05:57:18.975Z,4.20
2019-06-27T05:59:49.426Z,5.70
2019-06-27T06:02:20.276Z,5.83
2019-06-27T06:04:50.735Z,4.63
2019-06-27T06:07:21.207Z,4.70
2019-06-27T06:09:51.621Z,4.90
2019-06-27T06:12:22.474Z,4.80
2019-06-27T06:14:52.918Z,4.70
2019-06-27T06:17:23.758Z,4.10
2019-06-27T06:19:54.754Z,4.90
2019-06-27T06:22:25.180Z,7.50
2019-06-27T06:24:58.185Z,6.30
2019-06-27T06:27:27.767Z,5.20
2019-06-27T06:29:58.507Z,6.67
2019-06-27T06:32:29.135Z,6.10
2019-06-27T06:34:59.967Z,5.77
2019-06-27T06:37:31.103Z,4.50
2019-06-27T06:40:01.676Z,5.10
2019-06-27T06:42:32.565Z,4.50
2019-06-27T06:45:03.011Z,6.27
2019-06-27T06:47:33.545Z,4.53
2019-06-27T06:50:04.197Z,4.77
2019-06-27T06:52:34.769Z,4.93
2019-06-27T06:55:05.631Z,5.80
2019-06-27T06:57:36.252Z,4.73
2019-06-27T07:00:09.023Z,5.43
2019-06-27T07:02:39.791Z,4.00
2019-06-27T07:05:10.453Z,5.67
2019-06-27T07:07:41.259Z,5.67
2019-06-27T07:10:12.343Z,5.77
2019-06-27T07:12:42.887Z,4.80
2019-06-27T07:15:13.791Z,4.80
2019-06-27T07:17:44.286Z,5.13
2019-06-27T07:20:15.323Z,5.27
2019-06-27T07:22:45.809Z,5.50
2019-06-27T07:25:16.630Z,5.03
2019-06-27T07:27:47.157Z,4.77
2019-06-27T07:30:17.792Z,5.30
2019-06-27T07:32:48.330Z,4.93
2019-06-27T07:35:18.967Z,4.83
2019-06-27T07:37:50.039Z,5.13
2019-06-27T07:40:21.171Z,4.53
2019-06-27T07:42:51.767Z,5.00
2019-06-27T07:45:22.411Z,5.43
2019-06-27T07:47:53.191Z,5.10
2019-06-27T07:50:23.925Z,4.80
2019-06-27T07:52:54.488Z,5.43
2019-06-27T07:55:25.364Z,5.10
2019-06-27T07:57:55.818Z,5.30
2019-06-27T08:00:27.120Z,5.10
2019-06-27T08:02:57.966Z,4.50
2019-06-27T08:05:28.443Z,5.30
2019-06-27T08:07:59.008Z,5.30
2019-06-27T08:10:29.770Z,5.10
2019-06-27T08:13:00.407Z,5.57
2019-06-27T08:15:31.062Z,5.30
2019-06-27T08:18:01.614Z,5.30
2019-06-27T08:20:32.294Z,5.00
2019-06-27T08:23:02.917Z,5.10
2019-06-27T08:25:33.414Z,5.27
2019-06-27T08:28:04.002Z,4.80
2019-06-27T08:30:34.529Z,5.10
2019-06-27T08:33:04.973Z,5.13
2019-06-27T08:35:35.658Z,5.00
2019-06-27T08:38:06.083Z,5.17
2019-06-27T08:40:36.798Z,4.67
2019-06-27T08:43:07.350Z,4.63
2019-06-27T08:45:37.931Z,5.80
2019-06-27T08:48:08.513Z,5.60
2019-06-27T08:50:39.015Z,5.03
2019-06-27T08:53:09.471Z,4.90
2019-06-27T08:55:40.063Z,4.67
2019-06-27T08:58:10.503Z,4.57
2019-06-27T09:00:41.177Z,4.30
2019-06-27T09:03:11.757Z,5.03
2019-06-27T09:05:42.231Z,5.47
2019-06-27T09:08:13.005Z,4.70
2019-06-27T09:10:43.403Z,4.20
2019-06-27T09:13:14.211Z,4.47
2019-06-27T09:15:44.759Z,5.17
2019-06-27T09:18:15.363Z,4.17
2019-06-27T09:20:45.985Z,4.13
2019-06-27T09:23:16.542Z,3.73
2019-06-27T09:25:46.990Z,3.60
2019-06-27T09:28:17.827Z,4.30
2019-06-27T09:30:48.273Z,4.03
2019-06-27T09:33:18.885Z,4.50
2019-06-27T09:35:49.612Z,3.33
2019-06-27T09:38:20.304Z,4.10
2019-06-27T09:40:50.732Z,4.60
2019-06-27T09:43:21.306Z,3.50
2019-06-27T09:45:51.923Z,4.30
2019-06-27T09:48:22.358Z,5.53
2019-06-27T09:50:53.170Z,4.80
2019-06-27T09:53:23.554Z,3.83
2019-06-27T09:55:54.018Z,4.03
2019-06-27T09:58:24.664Z,4.57
2019-06-27T10:00:55.174Z,3.90
2019-06-27T10:03:38.952Z,3.93
2019-06-27T10:06:09.390Z,3.90
2019-06-27T10:08:40.184Z,3.80
2019-06-27T10:11:10.649Z,5.73
2019-06-27T10:13:41.261Z,4.07
2019-06-27T10:16:11.867Z,5.00
2019-06-27T10:18:42.343Z,5.10
2019-06-27T10:21:13.305Z,3.30
2019-06-27T10:23:43.775Z,4.43
2019-06-27T10:26:14.515Z,5.20
2019-06-27T10:28:44.984Z,4.00
2019-06-27T10:31:15.833Z,3.47
2019-06-27T10:33:46.295Z,3.70
2019-06-27T10:36:17.217Z,4.03
2019-06-27T10:38:47.597Z,3.70
2019-06-27T10:41:19.377Z,4.53
2019-06-27T10:43:49.918Z,4.80
2019-06-27T10:46:20.569Z,3.90
2019-06-27T10:48:51.963Z,3.93
2019-06-27T10:51:22.491Z,3.37
2019-06-27T10:53:52.961Z,3.37
2019-06-27T10:56:23.611Z,3.00
2019-06-27T10:58:54.180Z,3.27
2019-06-27T11:01:24.761Z,3.60
2019-06-27T11:03:55.259Z,3.50
2019-06-27T11:06:26.752Z,3.83
2019-06-27T11:08:57.461Z,3.73
2019-06-27T11:11:27.894Z,4.10
2019-06-27T11:13:59.550Z,3.80
2019-06-27T11:16:30.191Z,2.90
2019-06-27T11:19:00.748Z,3.70
2019-06-27T11:21:31.445Z,3.33
2019-06-27T11:24:01.882Z,3.37
2019-06-27T11:26:32.364Z,3.10
2019-06-27T11:29:02.985Z,3.50
2019-06-27T11:31:33.630Z,3.33
2019-06-27T11:34:04.260Z,2.80
2019-06-27T11:36:34.695Z,4.10
2019-06-27T11:39:07.453Z,3.60
2019-06-27T11:41:37.880Z,3.00
2019-06-27T11:44:08.490Z,2.70
2019-06-27T11:46:39.233Z,3.03
2019-06-27T11:49:09.956Z,4.00
2019-06-27T11:51:40.571Z,4.50
2019-06-27T11:54:11.048Z,3.37
2019-06-27T11:56:41.512Z,4.27
2019-06-27T11:59:12.206Z,4.30
2019-06-27T12:01:43.796Z,5.13
2019-06-27T12:04:14.415Z,3.60
2019-06-27T12:06:45.111Z,6.30
2019-06-27T12:09:15.840Z,3.20
2019-06-27T12:11:46.482Z,3.47
2019-06-27T12:14:17.308Z,3.77
2019-06-27T12:16:47.816Z,3.80
2019-06-27T12:19:18.319Z,4.10
2019-06-27T12:21:48.806Z,5.13
2019-06-27T12:24:19.483Z,3.20
2019-06-27T12:26:50.289Z,10.87
2019-06-27T12:29:20.686Z,3.03
2019-06-27T12:31:51.851Z,3.20
2019-06-27T12:34:22.747Z,3.57
2019-06-27T12:36:53.189Z,4.47
2019-06-27T12:39:23.652Z,3.20
2019-06-27T12:41:54.290Z,2.87
2019-06-27T12:44:24.728Z,2.67
2019-06-27T12:46:55.488Z,3.20
2019-06-27T12:49:44.506Z,2.70
2019-06-27T12:51:58.099Z,2.57
2019-06-27T12:54:28.509Z,3.37
2019-06-27T12:56:59.043Z,2.73
2019-06-27T12:59:29.507Z,2.77
2019-06-27T13:02:01.359Z,2.53
2019-06-27T13:04:31.850Z,2.20
2019-06-27T13:07:02.547Z,2.35
2019-06-27T13:09:33.108Z,2.80
2019-06-27T13:12:03.758Z,3.37
2019-06-27T13:14:34.517Z,3.33
2019-06-27T13:17:05.098Z,5.00
2019-06-27T13:19:39.464Z,2.83
2019-06-27T13:22:08.058Z,2.58
2019-06-27T13:24:38.497Z,3.12
2019-06-27T13:27:08.937Z,2.90
2019-06-27T13:29:39.792Z,3.50
2019-06-27T13:32:10.846Z,3.08
2019-06-27T13:34:41.438Z,2.90
2019-06-27T13:37:12.034Z,3.30
2019-06-27T13:39:42.486Z,3.12
2019-06-27T13:42:13.132Z,2.05
2019-06-27T13:44:43.900Z,2.40
2019-06-27T13:47:14.409Z,2.85
2019-06-27T13:49:45.468Z,2.40
2019-06-27T13:52:16.236Z,2.35
2019-06-27T13:54:46.713Z,3.20
2019-06-27T13:57:17.249Z,4.90
2019-06-27T13:59:48.047Z,2.52
2019-06-27T14:02:18.880Z,3.35
2019-06-27T14:04:56.914Z,2.47
2019-06-27T14:07:21.653Z,2.27
2019-06-27T14:09:56.897Z,3.75
2019-06-27T14:12:24.894Z,3.25
2019-06-27T14:15:00.157Z,2.85
2019-06-27T14:17:28.375Z,2.70
2019-06-27T14:19:59.152Z,2.80
2019-06-27T14:22:34.084Z,4.40
2019-06-27T14:25:02.078Z,4.58
2019-06-27T14:27:32.805Z,3.00
2019-06-27T14:30:03.720Z,3.30
2019-06-27T14:32:34.420Z,2.30
2019-06-27T14:35:15.371Z,3.15
2019-06-27T14:37:37.592Z,2.60
2019-06-27T14:40:08.660Z,3.02
2019-06-27T14:42:39.160Z,4.47
2019-06-27T14:45:10.104Z,1.95
2019-06-27T14:47:41.500Z,3.65
2019-06-27T14:50:12.779Z,4.42
2019-06-27T14:52:43.573Z,2.52
2019-06-27T14:55:14.482Z,3.20
2019-06-27T14:57:44.911Z,2.58
2019-06-27T15:00:16.581Z,2.65
2019-06-27T15:02:47.210Z,3.60
2019-06-27T15:05:31.752Z,3.33
2019-06-27T15:07:51.693Z,2.93
2019-06-27T15:10:22.433Z,3.33
2019-06-27T15:12:57.331Z,2.05
2019-06-27T15:15:25.234Z,2.20
2019-06-27T15:17:55.838Z,2.80
2019-06-27T15:20:26.422Z,2.37
2019-06-27T15:22:57.885Z,2.27
2019-06-27T15:25:28.961Z,2.65
2019-06-27T15:27:59.862Z,3.27
2019-06-27T15:30:30.290Z,2.87
2019-06-27T15:33:07.504Z,2.57
2019-06-27T15:35:52.025Z,3.95
2019-06-27T15:38:10.387Z,2.37
2019-06-27T15:40:40.978Z,2.20
2019-06-27T15:43:11.963Z,2.27
2019-06-27T15:45:42.888Z,2.55
2019-06-27T15:48:13.565Z,2.55
2019-06-27T15:50:44.317Z,2.70
2019-06-27T15:53:14.835Z,2.40
2019-06-27T15:55:46.373Z,2.58
2019-06-27T15:58:17.424Z,2.30
2019-06-27T16:00:48.107Z,2.73
2019-06-27T16:03:18.634Z,3.60
2019-06-27T16:05:49.271Z,2.50
2019-06-27T16:08:19.764Z,3.23
2019-06-27T16:10:50.359Z,2.30
2019-06-27T16:13:20.977Z,2.10
2019-06-27T16:15:51.611Z,3.07
2019-06-27T16:18:22.325Z,2.13
2019-06-27T16:20:53.388Z,2.67
2019-06-27T16:23:23.862Z,2.70
2019-06-27T16:25:54.788Z,2.13
2019-06-27T16:28:27.018Z,2.07
2019-06-27T16:30:58.010Z,2.07
2019-06-27T16:33:28.927Z,2.40
2019-06-27T16:36:05.747Z,2.33
2019-06-27T16:38:37.434Z,4.83
2019-06-27T16:41:08.150Z,2.50
2019-06-27T16:43:39.431Z,2.07
2019-06-27T16:46:10.297Z,2.47
2019-06-27T16:48:41.353Z,3.10
2019-06-27T16:51:11.834Z,2.50
2019-06-27T16:53:42.869Z,2.70
2019-06-27T16:56:13.780Z,2.57
2019-06-27T16:58:44.417Z,2.23
2019-06-27T17:01:15.035Z,2.53
2019-06-27T17:03:45.655Z,2.80
2019-06-27T17:06:16.553Z,2.80
2019-06-27T17:08:47.243Z,2.93
2019-06-27T17:11:18.027Z,2.77
2019-06-27T17:13:48.679Z,2.57
2019-06-27T17:16:22.142Z,3.07
2019-06-27T17:18:51.405Z,2.50
2019-06-27T17:21:21.810Z,3.50
2019-06-27T17:23:52.682Z,2.83
2019-06-27T17:26:23.162Z,2.87
2019-06-27T17:28:53.646Z,2.23
2019-06-27T17:31:24.379Z,2.30
2019-06-27T17:33:55.824Z,2.33
2019-06-27T17:36:34.706Z,2.13
2019-06-27T17:39:07.811Z,2.30
2019-06-27T17:41:38.314Z,4.40
2019-06-27T17:44:09.086Z,3.23
2019-06-27T17:46:39.602Z,2.07
2019-06-27T17:49:10.438Z,2.30
2019-06-27T17:51:44.196Z,2.13
2019-06-27T17:54:15.204Z,2.47
2019-06-27T17:56:45.789Z,2.47
2019-06-27T17:59:16.304Z,2.30
2019-06-27T18:01:48.136Z,2.60
2019-06-27T18:04:18.654Z,2.40
2019-06-27T18:06:49.639Z,3.03
2019-06-27T18:09:20.406Z,2.70
2019-06-27T18:11:51.179Z,2.10
2019-06-27T18:14:21.701Z,2.20
2019-06-27T18:16:52.239Z,3.30
2019-06-27T18:19:22.693Z,2.50
2019-06-27T18:21:53.676Z,2.20
2019-06-27T18:24:24.355Z,2.80
2019-06-27T18:26:54.933Z,3.60
2019-06-27T18:29:25.467Z,2.80
2019-06-27T18:31:56.055Z,2.00
2019-06-27T18:34:26.629Z,2.07
2019-06-27T18:36:58.319Z,2.10
2019-06-27T18:39:28.761Z,1.63
2019-06-27T18:41:59.215Z,1.90
2019-06-27T18:44:29.971Z,1.90
2019-06-27T18:47:01.275Z,1.97
2019-06-27T18:49:31.786Z,1.90
2019-06-27T18:52:02.585Z,2.03
2019-06-27T18:54:33.055Z,1.90
2019-06-27T18:57:03.834Z,1.60
2019-06-27T18:59:35.387Z,2.27
2019-06-27T19:02:05.873Z,1.70
2019-06-27T19:04:36.644Z,1.83
2019-06-27T19:07:07.142Z,1.70
2019-06-27T19:09:37.682Z,2.23
2019-06-27T19:12:08.328Z,2.07
2019-06-27T19:14:38.844Z,2.10
2019-06-27T19:17:09.547Z,2.50
2019-06-27T19:19:41.978Z,2.27
2019-06-27T19:22:31.424Z,2.20
2019-06-27T19:25:20.020Z,1.87
2019-06-27T19:27:50.503Z,2.43
2019-06-27T19:30:20.960Z,2.20
2019-06-27T19:32:51.489Z,2.50
2019-06-27T19:35:22.042Z,2.27
2019-06-27T19:38:02.273Z,2.13
2019-06-27T19:40:24.530Z,2.47
2019-06-27T19:42:55.250Z,2.60
2019-06-27T19:45:25.765Z,2.40
2019-06-27T19:47:56.322Z,2.67
2019-06-27T19:50:26.920Z,2.23
2019-06-27T19:52:57.904Z,2.73
2019-06-27T19:55:28.551Z,2.60
2019-06-27T19:57:58.965Z,2.63
2019-06-27T20:00:29.946Z,2.20
2019-06-27T20:03:00.396Z,2.70
2019-06-27T20:05:31.049Z,2.70
2019-06-27T20:08:17.408Z,2.60
2019-06-27T20:10:33.633Z,2.93
2019-06-27T20:13:04.163Z,3.00
2019-06-27T20:15:34.749Z,2.70
2019-06-27T20:18:05.411Z,3.10
2019-06-27T20:20:36.180Z,2.70
2019-06-27T20:23:06.703Z,3.73
2019-06-27T20:25:37.461Z,3.00
2019-06-27T20:28:07.999Z,2.83
2019-06-27T20:30:38.685Z,2.77
2019-06-27T20:33:09.261Z,2.93
2019-06-27T20:35:40.348Z,3.30
2019-06-27T20:38:10.975Z,3.27
2019-06-27T20:40:41.993Z,3.57
2019-06-27T20:43:12.706Z,3.20
2019-06-27T20:45:43.151Z,3.33
2019-06-27T20:48:13.651Z,3.17
2019-06-27T20:50:44.389Z,2.73
2019-06-27T20:53:14.882Z,3.17
2019-06-27T20:55:45.401Z,3.10
2019-06-27T20:58:15.990Z,2.83
2019-06-27T21:00:46.550Z,3.20
2019-06-27T21:03:17.379Z,2.97
2019-06-27T21:05:48.507Z,2.90
2019-06-27T21:08:18.953Z,3.13
2019-06-27T21:10:49.422Z,2.53
2019-06-27T21:13:20.072Z,2.97
2019-06-27T21:15:50.693Z,3.00
2019-06-27T21:18:21.528Z,3.00
2019-06-27T21:20:51.954Z,2.30
2019-06-27T21:23:22.456Z,2.57
2019-06-27T21:25:53.163Z,2.50
2019-06-27T21:28:23.876Z,2.67
2019-06-27T21:30:54.468Z,2.50
2019-06-27T21:33:24.862Z,3.00
2019-06-27T21:35:55.642Z,2.53
2019-06-27T21:38:26.062Z,3.03
2019-06-27T21:40:56.831Z,2.83
2019-06-27T21:43:27.342Z,2.93
2019-06-27T21:45:57.807Z,3.00
2019-06-27T21:48:28.387Z,3.47
2019-06-27T21:50:58.787Z,3.20
2019-06-27T21:53:29.525Z,3.40
2019-06-27T21:56:00.157Z,4.00
2019-06-27T21:58:30.656Z,4.40
2019-06-27T22:01:02.016Z,3.80
2019-06-27T22:03:32.736Z,4.10
2019-06-27T22:06:03.385Z,4.37
2019-06-27T22:08:33.988Z,3.90
2019-06-27T22:11:04.418Z,3.90
2019-06-27T22:13:35.262Z,4.30
2019-06-27T22:16:05.916Z,4.00
2019-06-27T22:18:36.459Z,4.20
2019-06-27T22:21:07.199Z,4.60
2019-06-27T22:23:38.269Z,4.07
2019-06-27T22:26:08.689Z,4.80
2019-06-27T22:28:39.123Z,4.83
2019-06-27T22:31:09.911Z,4.13
2019-06-27T22:33:40.327Z,4.43
2019-06-27T22:36:12.207Z,4.77
2019-06-27T22:39:00.479Z,4.87
2019-06-27T22:41:50.550Z,5.57
2019-06-27T22:44:38.789Z,5.77
2019-06-27T22:47:27.170Z,8.87
2019-06-27T22:49:56.632Z,6.70
2019-06-27T22:53:01.837Z,7.67
2019-06-27T22:55:32.788Z,12.03
2019-06-27T22:58:03.344Z,10.67
2019-06-27T23:00:34.117Z,8.70
2019-06-27T23:03:04.518Z,9.00
2019-06-27T23:05:35.260Z,9.87
2019-06-27T23:08:11.936Z,23.47
2019-06-27T23:10:42.702Z,48.43
2019-06-27T23:13:14.249Z,66.57
2019-06-27T23:15:45.141Z,81.27
2019-06-27T23:18:15.572Z,81.00
2019-06-27T23:20:46.214Z,49.53
2019-06-27T23:23:16.797Z,37.13
2019-06-27T23:25:47.575Z,15.77
2019-06-27T23:28:18.277Z,19.97
2019-06-27T23:30:49.047Z,18.57
2019-06-27T23:33:19.708Z,8.10
2019-06-27T23:35:50.369Z,7.73
2019-06-27T23:38:20.816Z,7.60
2019-06-27T23:40:51.303Z,10.17
2019-06-27T23:43:21.933Z,17.77
2019-06-27T23:45:52.459Z,13.77
2019-06-27T23:48:22.901Z,10.27
2019-06-27T23:50:53.643Z,9.20
2019-06-27T23:53:24.059Z,10.87
2019-06-27T23:55:54.747Z,11.27
2019-06-27T23:58:25.189Z,8.97
